createdAt,value
2023-04-30T16:02:33.285Z,18.46
2023-04-30T16:05:00.132Z,18.36
2023-04-30T16:07:34.271Z,18.36
2023-04-30T16:10:01.423Z,18.36
2023-04-30T16:12:35.214Z,18.39
2023-04-30T16:15:02.084Z,18.22
2023-04-30T16:17:36.368Z,18.08
2023-04-30T16:20:03.634Z,18.14
2023-04-30T16:22:37.280Z,17.92
2023-04-30T16:25:04.602Z,17.79
2023-04-30T16:27:38.226Z,17.61
2023-04-30T16:30:06.058Z,17.51
2023-04-30T16:32:40.386Z,17.41
2023-04-30T16:35:07.665Z,17.35
2023-04-30T16:37:34.387Z,17.41
2023-04-30T16:40:08.243Z,17.51
2023-04-30T16:42:35.466Z,17.42
2023-04-30T16:45:09.336Z,17.54
2023-04-30T16:47:36.294Z,17.39
2023-04-30T16:50:10.261Z,17.44
2023-04-30T16:52:37.135Z,17.48
2023-04-30T16:55:11.239Z,17.34
2023-04-30T16:57:37.976Z,17.30
2023-04-30T17:00:26.239Z,17.00
2023-04-30T17:02:53.668Z,16.94
2023-04-30T17:05:32.384Z,16.89
2023-04-30T17:07:59.278Z,16.80
2023-04-30T17:16:41.294Z,16.51
2023-04-30T17:19:08.257Z,16.41
2023-04-30T17:24:22.730Z,16.28
2023-04-30T17:26:57.248Z,16.19
2023-04-30T17:29:30.219Z,16.04
2023-04-30T17:34:46.938Z,15.84
2023-04-30T17:37:20.349Z,15.73
2023-04-30T17:43:31.337Z,15.43
2023-04-30T17:45:58.332Z,15.34
2023-04-30T17:48:35.057Z,15.37
2023-04-30T17:51:03.646Z,15.17
2023-04-30T17:56:16.787Z,15.17
2023-04-30T17:58:52.351Z,15.12
2023-04-30T18:04:59.295Z,14.91
2023-04-30T18:07:31.940Z,14.78
2023-04-30T18:10:05.352Z,14.78
2023-04-30T18:12:32.325Z,14.80
2023-04-30T18:15:08.248Z,14.54
2023-04-30T18:17:38.337Z,14.56
2023-04-30T18:20:13.750Z,14.42
2023-04-30T18:22:53.133Z,14.37
2023-04-30T18:25:26.453Z,14.41
2023-04-30T18:28:00.299Z,14.28
2023-04-30T18:30:29.260Z,14.16
2023-04-30T18:39:21.596Z,13.78
2023-04-30T18:41:56.335Z,13.67
2023-04-30T18:44:48.210Z,13.66
2023-04-30T18:47:24.353Z,13.44
2023-04-30T18:49:51.459Z,13.28
2023-04-30T18:52:25.331Z,13.24
2023-04-30T18:54:52.468Z,13.15
2023-04-30T18:57:21.516Z,13.05
2023-04-30T18:59:58.589Z,12.93
2023-04-30T19:02:34.818Z,12.87
2023-04-30T19:08:05.355Z,12.62
2023-04-30T19:10:40.390Z,12.50
2023-04-30T19:13:14.425Z,12.44
2023-04-30T19:15:48.963Z,12.40
2023-04-30T19:18:23.407Z,12.24
2023-04-30T19:23:46.421Z,12.24
2023-04-30T19:26:22.389Z,12.02
2023-04-30T19:28:52.109Z,12.00
2023-04-30T19:31:31.872Z,11.94
2023-04-30T19:36:56.651Z,11.85
2023-04-30T19:39:28.986Z,11.67
2023-04-30T19:44:44.414Z,11.46
2023-04-30T19:57:57.319Z,11.32
2023-04-30T20:06:33.468Z,10.99
2023-04-30T20:09:09.447Z,11.00
2023-04-30T20:11:36.586Z,10.94
2023-04-30T20:14:14.015Z,10.94
2023-04-30T20:23:52.414Z,10.77
2023-04-30T20:26:21.316Z,10.85
2023-04-30T20:34:16.488Z,10.78
2023-04-30T20:52:31.396Z,10.72
2023-04-30T20:55:10.438Z,10.67
2023-04-30T20:57:45.411Z,10.79
2023-04-30T21:00:15.340Z,10.58
2023-04-30T21:02:56.736Z,10.54
2023-04-30T21:05:31.464Z,10.48
2023-04-30T21:10:53.481Z,10.48
2023-04-30T21:16:08.630Z,10.20
2023-04-30T21:19:07.602Z,10.31
2023-04-30T21:21:37.099Z,10.11
2023-04-30T21:30:37.575Z,9.89
2023-04-30T21:33:32.723Z,9.79
2023-04-30T21:36:00.821Z,9.75
2023-04-30T21:41:16.506Z,9.69
2023-04-30T21:43:57.285Z,9.62
2023-04-30T21:49:12.961Z,9.48
2023-04-30T21:51:49.489Z,9.43
2023-04-30T21:54:31.888Z,9.41
2023-04-30T22:02:42.229Z,9.27
2023-04-30T22:08:07.625Z,9.42
2023-04-30T22:11:24.497Z,9.40
2023-04-30T22:13:53.829Z,9.19
2023-04-30T22:19:11.267Z,9.21
2023-04-30T22:22:14.526Z,9.33
2023-04-30T22:24:41.727Z,9.04
2023-04-30T22:27:58.499Z,9.27
2023-04-30T22:31:08.612Z,9.23
2023-04-30T22:36:31.050Z,9.03
2023-04-30T22:39:06.463Z,9.13
2023-04-30T22:41:34.928Z,8.99
2023-04-30T22:44:21.472Z,8.91
2023-04-30T22:49:45.507Z,8.83
2023-04-30T22:52:15.579Z,8.83
2023-04-30T22:57:36.479Z,8.85
2023-04-30T23:00:31.487Z,8.98
2023-04-30T23:03:30.695Z,8.98
2023-04-30T23:08:53.254Z,8.75
2023-04-30T23:11:40.545Z,8.73
2023-04-30T23:14:10.043Z,8.68
2023-04-30T23:16:56.060Z,8.81
2023-04-30T23:19:23.409Z,8.85
2023-04-30T23:22:26.653Z,8.85
2023-04-30T23:24:58.582Z,8.68
2023-04-30T23:27:38.133Z,8.74
2023-04-30T23:30:08.144Z,8.62
2023-04-30T23:38:45.017Z,8.57
2023-04-30T23:42:16.755Z,8.64
2023-04-30T23:44:57.215Z,8.45
2023-04-30T23:47:25.521Z,8.35
